Time;durP1;ratioP1;P1;durP2;ratioP2;P2;SDS_P1;SDS_P2;PMS_P1;PMS_P2;Temp;Humidity;BMP_temperature;BMP_pressure;BME280_temperature;BME280_humidity;BME280_pressure;Samples;Min_cycle;Max_cycle;Signal;HPM_P1;HPM_P2
2024/04/22 00:01:42;;;;;;;9.63;8.63;;;3.60;30.80;;;;;;5416202;26;20226;-70
2024/04/22 00:04:08;;;;;;;12.50;8.57;;;3.50;30.10;;;;;;5416157;26;20257;-70
2024/04/22 00:06:33;;;;;;;9.63;8.20;;;3.60;31.70;;;;;;5415374;26;20321;-71
2024/04/22 00:08:59;;;;;;;10.40;8.53;;;3.60;31.40;;;;;;5384696;26;20246;-70
2024/04/22 00:11:24;;;;;;;9.50;8.40;;;3.70;31.90;;;;;;5384471;26;20316;-71
2024/04/22 00:13:50;;;;;;;14.30;8.93;;;3.70;30.80;;;;;;5415740;26;20829;-71
2024/04/22 00:16:15;;;;;;;8.73;7.40;;;3.60;29.30;;;;;;5415596;26;20260;-71
2024/04/22 00:18:41;;;;;;;9.70;7.83;;;3.50;28.60;;;;;;5385099;26;20230;-71
2024/04/22 00:21:06;;;;;;;10.50;6.70;;;3.40;29.70;;;;;;5415832;26;20703;-71
2024/04/22 00:23:32;;;;;;;9.87;7.70;;;3.40;30.00;;;;;;5416096;26;20427;-72
2024/04/22 00:25:58;;;;;;;8.63;6.50;;;3.40;30.40;;;;;;5384096;26;20261;-72
2024/04/22 00:28:23;;;;;;;7.93;6.37;;;3.40;30.80;;;;;;5384332;26;20242;-71
2024/04/22 00:30:49;;;;;;;7.93;7.03;;;3.30;30.30;;;;;;5415728;26;20448;-72
2024/04/22 00:33:14;;;;;;;11.10;7.17;;;3.30;30.60;;;;;;5384574;26;20256;-72
2024/04/22 00:35:40;;;;;;;9.57;7.57;;;3.30;30.20;;;;;;5415158;26;20229;-72
2024/04/22 00:38:06;;;;;;;9.37;8.23;;;3.30;29.70;;;;;;5415768;26;20271;-72
2024/04/22 00:40:32;;;;;;;9.30;6.90;;;3.30;29.70;;;;;;5384467;26;20250;-72
2024/04/22 00:42:59;;;;;;;10.60;6.90;;;3.30;30.20;;;;;;5384309;26;20291;-72
2024/04/22 00:45:24;;;;;;;8.48;7.03;;;3.30;29.10;;;;;;5383880;26;21062;-71
2024/04/22 00:47:51;;;;;;;7.38;6.47;;;3.20;29.00;;;;;;5415119;26;20242;-72
2024/04/22 00:50:17;;;;;;;9.27;6.57;;;3.20;29.30;;;;;;5415466;26;20312;-72
2024/04/22 00:52:43;;;;;;;7.70;6.65;;;3.10;29.30;;;;;;5416361;26;20316;-72
2024/04/22 00:55:09;;;;;;;12.73;7.10;;;3.10;30.00;;;;;;5416043;26;20294;-72
2024/04/22 00:57:38;;;;;;;9.00;7.10;;;3.10;30.20;;;;;;5415742;26;20235;-72
2024/04/22 01:00:05;;;;;;;7.80;6.53;;;3.10;28.90;;;;;;5415761;26;20338;-72
2024/04/22 01:02:31;;;;;;;13.45;6.90;;;3.20;29.80;;;;;;5383802;26;20252;-72
2024/04/22 01:04:58;;;;;;;8.43;5.63;;;3.10;29.10;;;;;;5414720;26;20218;-72
2024/04/22 01:07:24;;;;;;;7.30;6.53;;;3.20;30.20;;;;;;5415071;26;20284;-72
2024/04/22 01:09:49;;;;;;;9.68;7.20;;;3.20;29.50;;;;;;5414972;26;20226;-71
2024/04/22 01:12:15;;;;;;;10.47;7.97;;;3.20;29.40;;;;;;5415372;26;20221;-71
2024/04/22 01:14:40;;;;;;;6.83;6.13;;;3.10;29.90;;;;;;5414621;26;20234;-71
2024/04/22 01:17:06;;;;;;;7.20;5.77;;;3.10;31.90;;;;;;5383839;26;20269;-71
2024/04/22 01:19:32;;;;;;;9.93;6.47;;;3.10;30.40;;;;;;5415225;26;20823;-72
2024/04/22 01:21:57;;;;;;;8.53;6.60;;;3.10;29.70;;;;;;5415768;26;20704;-71
2024/04/22 01:24:23;;;;;;;7.50;6.60;;;3.10;30.00;;;;;;5417206;26;20218;-72
2024/04/22 01:26:53;;;;;;;7.88;5.53;;;3.10;28.70;;;;;;5383247;26;20275;-72
2024/04/22 01:29:18;;;;;;;6.20;4.93;;;3.00;28.40;;;;;;5414692;26;20226;-71
2024/04/22 01:31:44;;;;;;;7.43;6.17;;;3.00;28.40;;;;;;5414915;26;20329;-71
2024/04/22 01:34:09;;;;;;;7.63;5.30;;;3.00;28.80;;;;;;5383135;26;20228;-72
2024/04/22 01:36:40;;;;;;;7.80;5.00;;;3.00;28.40;;;;;;5414315;26;20233;-71
2024/04/22 01:39:09;;;;;;;8.95;6.30;;;3.00;28.70;;;;;;5414581;26;20290;-70
2024/04/22 01:41:35;;;;;;;8.18;6.38;;;3.00;26.80;;;;;;5414335;26;20823;-71
2024/04/22 01:44:00;;;;;;;6.63;4.70;;;2.90;26.70;;;;;;5414219;26;20230;-70
2024/04/22 01:46:26;;;;;;;8.17;5.80;;;2.90;26.70;;;;;;5382906;26;20245;-72
2024/04/22 01:48:51;;;;;;;13.10;6.33;;;2.90;26.60;;;;;;5414710;26;20241;-71
2024/04/22 01:51:17;;;;;;;6.13;4.97;;;2.90;25.00;;;;;;5414598;26;20270;-72
2024/04/22 01:53:42;;;;;;;8.17;5.77;;;2.70;24.90;;;;;;5382894;26;20224;-72
2024/04/22 01:56:08;;;;;;;7.20;5.83;;;2.70;26.30;;;;;;5413895;26;20232;-71
2024/04/22 01:58:33;;;;;;;6.50;5.33;;;2.60;26.80;;;;;;5383515;26;20589;-72
2024/04/22 02:01:07;;;;;;;6.13;4.70;;;2.60;26.80;;;;;;5382989;26;20684;-72
2024/04/22 02:03:33;;;;;;;6.25;4.78;;;2.60;26.80;;;;;;5414594;26;20354;-73
2024/04/22 02:05:58;;;;;;;8.37;5.80;;;2.60;27.30;;;;;;5414042;26;20264;-71
2024/04/22 02:08:24;;;;;;;6.97;5.20;;;2.70;26.90;;;;;;5416782;26;20225;-71
2024/04/22 02:10:49;;;;;;;7.17;5.90;;;2.70;26.20;;;;;;5417667;26;20273;-70
2024/04/22 02:13:15;;;;;;;6.80;5.37;;;2.60;25.80;;;;;;5386598;26;20236;-71
2024/04/22 02:15:40;;;;;;;8.37;5.37;;;2.60;26.30;;;;;;5417220;26;20225;-71
2024/04/22 02:18:06;;;;;;;6.20;4.60;;;2.70;25.50;;;;;;5386458;26;20231;-71
2024/04/22 02:20:32;;;;;;;9.40;6.05;;;2.70;24.80;;;;;;5417821;26;20223;-71
2024/04/22 02:22:58;;;;;;;8.90;5.43;;;2.80;25.10;;;;;;5417483;26;20353;-71
2024/04/22 02:25:23;;;;;;;6.10;4.40;;;2.80;24.90;;;;;;5417070;26;20330;-71
2024/04/22 02:27:50;;;;;;;6.37;5.10;;;2.80;25.90;;;;;;5385957;26;20253;-71
2024/04/22 02:30:16;;;;;;;7.38;5.25;;;2.90;25.00;;;;;;5386866;26;20321;-72
2024/04/22 02:32:42;;;;;;;6.20;5.13;;;3.00;25.60;;;;;;5417920;26;20236;-72
2024/04/22 02:35:07;;;;;;;8.80;5.20;;;2.90;25.20;;;;;;5417322;26;20269;-72
2024/04/22 02:37:33;;;;;;;7.47;5.50;;;3.00;26.00;;;;;;5417295;26;20250;-72
2024/04/22 02:39:58;;;;;;;6.13;5.00;;;2.90;25.00;;;;;;5417309;26;20270;-72
2024/04/22 02:42:24;;;;;;;6.80;5.47;;;2.80;24.90;;;;;;5417142;26;20217;-72
2024/04/22 02:44:49;;;;;;;7.70;5.90;;;2.80;25.00;;;;;;5416765;26;20239;-72
2024/04/22 02:47:15;;;;;;;6.87;4.87;;;2.90;25.60;;;;;;5385573;26;20265;-72
2024/04/22 02:49:40;;;;;;;5.80;4.87;;;2.90;23.90;;;;;;5417334;26;20248;-72
2024/04/22 02:52:06;;;;;;;6.23;4.60;;;2.80;22.40;;;;;;5417146;26;20225;-72
2024/04/22 02:54:33;;;;;;;6.33;5.10;;;2.80;22.90;;;;;;5416708;26;20224;-70
2024/04/22 02:56:59;;;;;;;6.40;4.47;;;2.80;22.90;;;;;;5417634;26;21097;-71
2024/04/22 02:59:24;;;;;;;6.90;5.23;;;2.80;21.50;;;;;;5417569;26;20263;-71
2024/04/22 03:01:50;;;;;;;6.07;4.97;;;2.80;21.40;;;;;;5386143;26;20254;-72
2024/04/22 03:04:15;;;;;;;5.90;5.10;;;2.70;20.60;;;;;;5418510;26;20321;-71
2024/04/22 03:06:41;;;;;;;5.93;4.93;;;2.70;21.10;;;;;;5387073;26;20285;-71
2024/04/22 03:09:07;;;;;;;7.27;4.93;;;2.70;20.20;;;;;;5417199;26;20225;-71
2024/04/22 03:11:33;;;;;;;7.00;5.23;;;2.60;19.80;;;;;;5417314;26;20222;-71
2024/04/22 03:13:58;;;;;;;7.60;5.30;;;2.40;21.00;;;;;;5385522;26;20258;-72
2024/04/22 03:16:24;;;;;;;6.07;4.87;;;2.40;21.70;;;;;;5384863;26;20571;-72
2024/04/22 03:18:49;;;;;;;5.63;4.87;;;2.40;23.20;;;;;;5416165;26;20232;-72
2024/04/22 03:21:15;;;;;;;7.37;5.37;;;2.50;23.30;;;;;;5416929;26;20236;-72
2024/04/22 03:23:40;;;;;;;7.60;5.40;;;2.50;24.80;;;;;;5417209;26;20225;-72
2024/04/22 03:26:06;;;;;;;10.50;5.90;;;2.50;24.70;;;;;;5386624;26;20340;-72
2024/04/22 03:28:35;;;;;;;7.43;5.67;;;2.50;24.50;;;;;;5416960;26;20307;-71
2024/04/22 03:31:00;;;;;;;8.98;5.43;;;2.60;23.90;;;;;;5416363;26;20754;-71
2024/04/22 03:33:26;;;;;;;7.50;5.93;;;2.50;22.70;;;;;;5416826;26;20228;-72
2024/04/22 03:35:51;;;;;;;6.00;4.60;;;2.40;22.50;;;;;;5416449;26;20227;-72
2024/04/22 03:38:18;;;;;;;7.97;4.87;;;2.40;22.60;;;;;;5416409;26;20220;-72
2024/04/22 03:40:43;;;;;;;8.32;5.88;;;2.50;22.50;;;;;;5416311;26;20276;-72
2024/04/22 03:43:11;;;;;;;12.77;6.73;;;2.50;21.00;;;;;;5416284;26;20571;-72
2024/04/22 03:45:37;;;;;;;8.18;5.72;;;2.50;21.70;;;;;;5415840;26;20665;-72
2024/04/22 03:50:47;;;;;;;7.32;5.00;;;2.60;21.30;;;;;;5415914;26;20268;-71
2024/04/22 03:53:12;;;;;;;9.00;4.67;;;2.60;21.30;;;;;;5415936;26;20229;-72
2024/04/22 03:55:38;;;;;;;5.40;4.43;;;2.60;21.30;;;;;;5415727;26;20217;-72
2024/04/22 03:58:04;;;;;;;6.67;5.27;;;2.60;21.70;;;;;;5415851;26;20268;-72
2024/04/22 04:00:29;;;;;;;6.57;4.50;;;2.70;22.70;;;;;;5415768;26;20273;-71
2024/04/22 04:02:55;;;;;;;8.37;5.27;;;2.70;20.90;;;;;;5415995;26;20291;-72
2024/04/22 04:05:20;;;;;;;8.63;6.10;;;2.70;21.10;;;;;;5384010;26;20221;-71
2024/04/22 04:07:46;;;;;;;6.77;5.10;;;2.70;22.10;;;;;;5415640;26;20243;-71
2024/04/22 04:10:11;;;;;;;13.20;6.10;;;2.70;21.70;;;;;;5384479;26;20226;-71
2024/04/22 04:12:37;;;;;;;8.90;6.70;;;2.70;21.20;;;;;;5415633;26;20217;-71
2024/04/22 04:15:03;;;;;;;6.43;4.40;;;2.80;21.70;;;;;;5415047;26;20227;-71
2024/04/22 04:17:29;;;;;;;8.43;5.93;;;2.80;21.10;;;;;;5415505;26;20238;-71
2024/04/22 04:19:54;;;;;;;7.60;5.25;;;2.70;21.50;;;;;;5384246;26;20233;-71
2024/04/22 04:22:20;;;;;;;6.80;6.10;;;2.70;20.00;;;;;;5415815;26;20267;-73
2024/04/22 04:24:45;;;;;;;6.90;5.43;;;2.60;20.90;;;;;;5415324;26;20221;-71
2024/04/22 04:27:11;;;;;;;7.03;4.30;;;2.60;20.30;;;;;;5415792;26;20270;-71
2024/04/22 04:29:36;;;;;;;6.13;4.70;;;2.60;20.10;;;;;;5384349;26;20229;-72
2024/04/22 04:32:02;;;;;;;6.47;4.67;;;2.60;18.60;;;;;;5383182;26;20233;-72
2024/04/22 04:34:27;;;;;;;6.40;4.57;;;2.60;18.00;;;;;;5415489;26;20272;-72
2024/04/22 04:36:53;;;;;;;4.97;4.10;;;2.60;17.50;;;;;;5384272;26;20243;-72
2024/04/22 04:39:19;;;;;;;6.87;4.40;;;2.60;18.60;;;;;;5384355;26;20228;-72
2024/04/22 04:41:44;;;;;;;7.40;4.70;;;2.70;18.60;;;;;;5415627;26;20222;-72
2024/04/22 04:44:10;;;;;;;6.40;4.43;;;2.70;18.00;;;;;;5415385;26;20368;-72
2024/04/22 04:46:35;;;;;;;7.27;4.00;;;2.70;15.60;;;;;;5414857;26;20237;-72
2024/04/22 04:49:01;;;;;;;8.43;3.80;;;2.60;14.40;;;;;;5415646;26;20223;-73
2024/04/22 04:51:27;;;;;;;5.53;3.80;;;2.60;14.10;;;;;;5384199;26;20294;-72
2024/04/22 04:53:52;;;;;;;7.07;4.37;;;2.50;14.30;;;;;;5415357;26;20276;-72
2024/04/22 04:56:18;;;;;;;5.60;4.00;;;2.50;14.00;;;;;;5415006;26;20272;-72
2024/04/22 04:58:43;;;;;;;5.63;4.20;;;2.50;13.60;;;;;;5415631;26;20696;-73
2024/04/22 05:01:09;;;;;;;9.53;5.20;;;2.50;14.00;;;;;;5415535;26;20272;-71
2024/04/22 05:03:34;;;;;;;6.73;4.33;;;2.60;13.00;;;;;;5383698;26;20271;-72
2024/04/22 05:06:01;;;;;;;5.07;4.57;;;2.60;12.90;;;;;;5414774;26;20315;-71
2024/04/22 05:08:27;;;;;;;5.90;3.83;;;2.60;12.60;;;;;;5415026;26;20227;-72
2024/04/22 05:10:52;;;;;;;5.93;3.77;;;2.60;13.20;;;;;;5414914;26;20873;-72
2024/04/22 05:13:18;;;;;;;5.00;3.50;;;2.60;12.00;;;;;;5383257;26;20716;-71
2024/04/22 05:15:43;;;;;;;6.40;4.40;;;2.60;12.10;;;;;;5383099;26;20315;-72
2024/04/22 05:18:09;;;;;;;5.13;4.53;;;2.60;12.30;;;;;;5383433;26;20335;-71
2024/04/22 05:20:35;;;;;;;6.53;3.67;;;2.60;13.80;;;;;;5383937;26;20251;-72
2024/04/22 05:23:00;;;;;;;5.17;3.70;;;2.60;11.90;;;;;;5415343;26;20684;-71
2024/04/22 05:25:26;;;;;;;5.77;3.80;;;2.60;12.10;;;;;;5415175;26;20275;-71
2024/04/22 05:27:52;;;;;;;7.87;4.60;;;2.60;12.40;;;;;;5416001;26;20276;-71
2024/04/22 05:30:18;;;;;;;5.47;4.38;;;2.50;11.90;;;;;;5416069;26;20225;-71
2024/04/22 05:32:44;;;;;;;6.80;4.60;;;2.60;12.80;;;;;;5385264;26;20649;-72
2024/04/22 05:37:54;;;;;;;6.30;4.57;;;2.50;10.50;;;;;;5416645;26;20769;-71
2024/04/22 05:40:20;;;;;;;8.00;4.20;;;2.60;11.50;;;;;;5416339;26;20223;-71
2024/04/22 05:42:45;;;;;;;8.83;3.90;;;2.60;12.30;;;;;;5417978;26;20220;-72
2024/04/22 05:45:11;;;;;;;6.13;4.40;;;2.60;12.30;;;;;;5421182;26;20323;-72
2024/04/22 05:47:37;;;;;;;5.70;4.40;;;2.50;11.80;;;;;;5390570;26;20244;-72
2024/04/22 05:50:03;;;;;;;5.17;3.60;;;2.50;12.50;;;;;;5420974;26;20604;-71
2024/04/22 05:52:28;;;;;;;4.30;3.58;;;2.50;12.60;;;;;;5424829;26;20222;-72
2024/04/22 05:54:54;;;;;;;8.10;3.90;;;2.50;12.10;;;;;;5419506;26;20261;-71
2024/04/22 05:57:20;;;;;;;6.47;4.57;;;2.60;11.30;;;;;;5418891;26;20242;-71
2024/04/22 05:59:45;;;;;;;8.03;4.40;;;2.50;12.00;;;;;;5418443;26;20225;-73
2024/04/22 06:02:11;;;;;;;4.70;3.67;;;2.60;13.40;;;;;;5418336;26;20613;-70
2024/04/22 06:04:37;;;;;;;4.50;3.77;;;2.80;13.10;;;;;;5421195;26;20561;-72
2024/04/22 06:07:03;;;;;;;5.40;4.27;;;2.90;12.50;;;;;;5423938;26;20811;-71
2024/04/22 06:09:28;;;;;;;4.93;3.65;;;3.00;11.20;;;;;;5420907;26;20338;-71
2024/04/22 06:11:54;;;;;;;6.27;4.97;;;2.80;10.20;;;;;;5419058;26;20230;-71
2024/04/22 06:14:20;;;;;;;6.87;4.40;;;2.90;11.60;;;;;;5418267;26;20332;-71
2024/04/22 06:16:45;;;;;;;6.17;4.23;;;2.80;11.00;;;;;;5386173;26;20267;-71
2024/04/22 06:19:11;;;;;;;4.90;3.57;;;2.80;11.50;;;;;;5386053;26;20228;-71
2024/04/22 06:21:37;;;;;;;5.70;4.03;;;2.90;11.90;;;;;;5417150;26;20221;-71
2024/04/22 06:24:02;;;;;;;8.23;4.67;;;3.00;12.80;;;;;;5386079;26;20241;-71
2024/04/22 06:26:28;;;;;;;9.13;4.50;;;3.00;11.10;;;;;;5385927;26;20241;-71
2024/04/22 06:28:54;;;;;;;5.10;4.27;;;2.90;10.20;;;;;;5417248;26;20267;-71
2024/04/22 06:31:20;;;;;;;6.20;4.00;;;2.80;11.10;;;;;;5417410;26;20226;-71
2024/04/22 06:33:46;;;;;;;6.60;4.75;;;2.80;13.30;;;;;;5385936;26;20683;-70
2024/04/22 06:36:12;;;;;;;7.70;5.00;;;2.80;12.00;;;;;;5385884;26;20298;-71
2024/04/22 06:38:38;;;;;;;5.80;4.60;;;2.80;12.70;;;;;;5417637;26;20334;-70
2024/04/22 06:41:04;;;;;;;7.35;4.00;;;2.80;12.10;;;;;;5417750;26;20677;-72
2024/04/22 06:43:30;;;;;;;6.80;4.35;;;2.80;12.50;;;;;;5417458;26;20226;-71
2024/04/22 06:45:56;;;;;;;6.17;4.17;;;2.80;10.70;;;;;;5417768;26;20290;-71
2024/04/22 06:48:21;;;;;;;4.60;3.80;;;2.80;12.60;;;;;;5386613;26;20236;-71
2024/04/22 06:50:47;;;;;;;5.60;3.80;;;2.80;12.80;;;;;;5385580;26;20221;-71
2024/04/22 06:53:13;;;;;;;7.97;5.43;;;2.90;12.10;;;;;;5385898;26;20245;-71
2024/04/22 06:55:38;;;;;;;3.97;3.17;;;2.90;11.70;;;;;;5416209;26;20637;-70
2024/04/22 06:58:04;;;;;;;7.73;4.80;;;2.90;10.90;;;;;;5417141;26;20238;-70
2024/04/22 07:00:30;;;;;;;6.13;5.23;;;2.80;11.30;;;;;;5385783;26;20317;-70
2024/04/22 07:02:56;;;;;;;5.32;4.13;;;2.80;12.40;;;;;;5417346;26;20224;-71
2024/04/22 07:05:22;;;;;;;5.37;4.63;;;2.90;11.50;;;;;;5416605;26;20845;-70
2024/04/22 07:07:48;;;;;;;7.87;4.73;;;2.90;11.70;;;;;;5416866;26;20864;-70
2024/04/22 07:10:13;;;;;;;7.30;4.70;;;3.00;11.20;;;;;;5385877;26;20240;-70
2024/04/22 07:12:42;;;;;;;4.70;3.40;;;3.00;10.90;;;;;;5385424;26;20458;-71
2024/04/22 07:15:08;;;;;;;7.70;4.10;;;3.00;10.30;;;;;;5385151;26;20230;-71
2024/04/22 07:17:34;;;;;;;5.67;4.00;;;3.10;10.40;;;;;;5417249;26;20279;-71
2024/04/22 07:19:59;;;;;;;6.50;4.53;;;2.90;9.00;;;;;;5385736;26;20804;-72
2024/04/22 07:22:32;;;;;;;7.50;4.20;;;2.90;10.20;;;;;;5417729;26;20225;-71
2024/04/22 07:24:58;;;;;;;6.63;3.50;;;2.90;10.20;;;;;;5417070;26;20263;-71
2024/04/22 07:27:23;;;;;;;6.40;4.10;;;2.90;11.70;;;;;;5385814;26;20573;-71
2024/04/22 07:29:49;;;;;;;5.63;3.50;;;3.00;10.40;;;;;;5416706;26;20840;-71
2024/04/22 07:32:15;;;;;;;5.20;4.33;;;3.10;10.40;;;;;;5385040;26;20582;-69
2024/04/22 07:34:42;;;;;;;6.47;4.70;;;3.20;9.10;;;;;;5416384;26;20540;-70
2024/04/22 07:37:18;;;;;;;15.75;4.70;;;3.40;10.40;;;;;;5416609;26;20306;-70
2024/04/22 07:39:46;;;;;;;6.55;3.88;;;3.60;7.70;;;;;;5416867;26;20317;-72
2024/04/22 07:42:12;;;;;;;5.95;4.70;;;3.80;5.80;;;;;;5419235;26;20214;-70
2024/04/22 07:44:37;;;;;;;8.47;4.10;;;4.20;6.70;;;;;;5417574;26;20267;-71
2024/04/22 07:47:03;;;;;;;5.00;4.13;;;4.50;2.10;;;;;;5416583;26;20234;-72
2024/04/22 07:49:29;;;;;;;7.63;3.93;;;4.30;1.00;;;;;;5415911;26;20230;-71
2024/04/22 07:51:54;;;;;;;5.53;4.10;;;4.30;1.80;;;;;;5384855;26;20475;-71
2024/04/22 07:54:20;;;;;;;5.00;3.80;;;4.40;2.80;;;;;;5416380;26;20569;-71
2024/04/22 07:56:46;;;;;;;5.27;3.60;;;4.30;1.00;;;;;;5416248;26;20767;-71
2024/04/22 07:59:12;;;;;;;4.70;4.00;;;4.50;1.00;;;;;;5416062;26;20294;-71
2024/04/22 08:01:38;;;;;;;7.47;4.63;;;4.60;1.00;;;;;;5384509;26;20467;-70
2024/04/22 08:04:05;;;;;;;5.90;3.13;;;4.70;1.00;;;;;;5415638;26;20516;-71
2024/04/22 08:06:37;;;;;;;6.80;4.03;;;4.70;1.00;;;;;;5415286;26;20468;-71
2024/04/22 08:09:03;;;;;;;8.53;3.40;;;5.00;1.00;;;;;;5415866;26;20545;-71
2024/04/22 08:11:29;;;;;;;4.80;3.90;;;5.00;1.00;;;;;;5416262;26;20505;-71
2024/04/22 08:13:55;;;;;;;5.27;3.47;;;4.90;1.00;;;;;;5415935;26;20516;-71
2024/04/22 08:16:20;;;;;;;4.43;3.53;;;4.90;1.00;;;;;;5415402;26;20599;-72
2024/04/22 08:18:46;;;;;;;5.73;4.30;;;4.70;1.00;;;;;;5416229;26;20343;-72
2024/04/22 08:21:12;;;;;;;4.80;3.80;;;4.70;1.00;;;;;;5416088;26;20225;-72
2024/04/22 08:23:38;;;;;;;4.03;3.23;;;4.60;1.00;;;;;;5384580;26;20646;-72
2024/04/22 08:26:04;;;;;;;8.43;3.40;;;4.80;1.00;;;;;;5415704;26;20546;-72
2024/04/22 08:28:29;;;;;;;8.33;3.17;;;4.80;1.00;;;;;;5416008;26;20982;-72
2024/04/22 08:31:02;;;;;;;4.70;3.57;;;4.70;1.00;;;;;;5415547;26;20272;-72
2024/04/22 08:33:27;;;;;;;5.37;3.60;;;4.60;1.00;;;;;;5415765;26;20222;-72
2024/04/22 08:35:53;;;;;;;6.70;3.40;;;4.80;1.00;;;;;;5415464;26;20542;-72
2024/04/22 08:38:19;;;;;;;7.00;3.83;;;4.80;1.00;;;;;;5415583;26;20712;-72
2024/04/22 08:40:44;;;;;;;6.73;3.97;;;4.60;1.00;;;;;;5384329;26;20777;-72
2024/04/22 08:43:13;;;;;;;3.47;2.70;;;4.50;1.00;;;;;;5415517;26;20261;-71
2024/04/22 08:45:43;;;;;;;5.77;4.13;;;4.60;1.00;;;;;;5415057;26;20702;-71
2024/04/22 08:48:09;;;;;;;6.10;3.78;;;4.80;1.00;;;;;;5415559;26;20449;-72
2024/04/22 08:50:37;;;;;;;5.60;4.03;;;5.10;1.00;;;;;;5384609;26;20544;-72
2024/04/22 08:53:04;;;;;;;4.67;3.23;;;5.10;1.00;;;;;;5415466;26;20457;-72
2024/04/22 08:55:30;;;;;;;5.17;3.10;;;4.70;1.00;;;;;;5415308;26;20498;-71
2024/04/22 08:57:55;;;;;;;5.80;3.13;;;4.70;1.00;;;;;;5383783;26;20469;-71
2024/04/22 09:00:21;;;;;;;5.00;3.40;;;4.60;1.00;;;;;;5415112;26;20575;-71
2024/04/22 09:02:47;;;;;;;4.43;2.97;;;4.70;1.00;;;;;;5415297;26;20303;-71
2024/04/22 09:05:12;;;;;;;4.67;3.07;;;4.70;1.00;;;;;;5383499;26;20461;-71
2024/04/22 09:07:38;;;;;;;4.90;3.23;;;4.90;1.00;;;;;;5415135;26;20243;-71
2024/04/22 09:10:04;;;;;;;8.70;3.60;;;5.50;1.00;;;;;;5414897;26;20265;-71
2024/04/22 09:12:30;;;;;;;4.97;3.60;;;5.90;1.00;;;;;;5383636;26;20292;-71
2024/04/22 09:15:00;;;;;;;4.40;3.57;;;5.90;1.00;;;;;;5414678;26;20454;-71
2024/04/22 09:17:26;;;;;;;5.37;3.20;;;6.20;1.00;;;;;;5414388;26;20239;-71
2024/04/22 09:19:51;;;;;;;3.30;2.70;;;6.70;1.00;;;;;;5415977;26;20443;-71
2024/04/22 09:22:17;;;;;;;4.50;3.17;;;6.90;1.00;;;;;;5383646;26;20500;-71
2024/04/22 09:24:43;;;;;;;4.93;4.17;;;6.40;1.00;;;;;;5383186;26;20227;-70
2024/04/22 09:27:10;;;;;;;4.60;3.03;;;5.90;1.00;;;;;;5415083;26;20231;-71
2024/04/22 09:29:42;;;;;;;4.70;3.40;;;6.00;1.00;;;;;;5414877;26;20501;-71
2024/04/22 09:32:12;;;;;;;3.80;3.00;;;6.30;1.00;;;;;;5414993;26;20488;-71
2024/04/22 09:34:40;;;;;;;4.80;3.60;;;6.40;1.00;;;;;;5414726;26;20446;-70
2024/04/22 09:37:07;;;;;;;5.30;3.37;;;6.50;1.00;;;;;;5383605;26;20497;-70
2024/04/22 09:39:34;;;;;;;8.80;3.53;;;6.90;1.00;;;;;;5383431;26;20454;-71
2024/04/22 09:42:01;;;;;;;4.03;3.60;;;7.10;1.00;;;;;;5414948;26;20651;-71
2024/04/22 09:44:29;;;;;;;3.90;3.20;;;7.20;1.00;;;;;;5383084;26;20507;-71
2024/04/22 09:46:56;;;;;;;4.37;3.37;;;7.60;1.00;;;;;;5414567;26;20462;-70
2024/04/22 09:49:24;;;;;;;7.47;3.97;;;7.90;1.00;;;;;;5414763;26;20499;-71
2024/04/22 09:51:50;;;;;;;7.43;3.63;;;7.50;1.00;;;;;;5414487;26;20530;-71
2024/04/22 09:54:16;;;;;;;8.23;3.37;;;7.10;1.00;;;;;;5414272;26;20446;-70
2024/04/22 09:56:47;;;;;;;3.67;3.33;;;7.00;1.00;;;;;;5415149;26;20584;-71
2024/04/22 09:59:13;;;;;;;6.47;4.03;;;7.40;1.00;;;;;;5415668;26;20514;-71
2024/04/22 10:01:39;;;;;;;6.00;4.00;;;7.80;1.00;;;;;;5414366;26;20446;-70
2024/04/22 10:04:05;;;;;;;4.43;4.03;;;8.30;1.00;;;;;;5383154;26;20463;-70
2024/04/22 10:06:32;;;;;;;4.50;4.10;;;8.60;1.00;;;;;;5413776;26;20241;-70
2024/04/22 10:09:01;;;;;;;7.23;3.90;;;8.30;1.00;;;;;;5414287;26;21030;-71
2024/04/22 10:11:30;;;;;;;5.47;4.37;;;8.40;1.00;;;;;;5414276;26;20456;-71
2024/04/22 10:14:07;;;;;;;6.37;4.27;;;8.50;1.00;;;;;;5414243;26;20499;-71
2024/04/22 10:16:33;;;;;;;5.50;3.70;;;9.20;1.00;;;;;;5414054;26;20927;-71
2024/04/22 10:18:58;;;;;;;5.10;4.60;;;9.70;1.00;;;;;;5414451;26;20445;-71
2024/04/22 10:21:26;;;;;;;4.93;4.53;;;9.80;1.00;;;;;;5382850;26;20253;-70
2024/04/22 10:23:54;;;;;;;4.80;3.90;;;10.10;1.00;;;;;;5414433;26;20226;-70
2024/04/22 10:26:20;;;;;;;5.90;4.83;;;10.10;1.00;;;;;;5413732;26;20468;-70
2024/04/22 10:28:47;;;;;;;4.80;4.40;;;10.20;1.00;;;;;;5414687;26;20441;-70
2024/04/22 10:31:19;;;;;;;5.40;4.40;;;9.80;1.00;;;;;;5386190;26;20828;-70
2024/04/22 10:33:45;;;;;;;5.17;4.70;;;9.30;1.00;;;;;;5417409;26;20449;-70
2024/04/22 10:36:11;;;;;;;5.20;4.70;;;9.80;1.00;;;;;;5417011;26;20516;-71
2024/04/22 10:38:36;;;;;;;4.77;4.07;;;9.70;1.00;;;;;;5417717;26;20227;-71
2024/04/22 10:41:02;;;;;;;4.00;3.70;;;9.40;1.00;;;;;;5386257;26;20254;-71
2024/04/22 10:43:28;;;;;;;5.30;4.90;;;9.60;1.00;;;;;;5418457;26;20265;-71
2024/04/22 10:45:53;;;;;;;5.23;4.73;;;9.40;1.00;;;;;;5417124;26;20457;-70
2024/04/22 10:48:19;;;;;;;4.60;4.20;;;9.00;1.00;;;;;;5417562;26;20759;-70
2024/04/22 10:50:47;;;;;;;6.00;5.27;;;9.10;1.00;;;;;;5417412;26;20780;-71
2024/04/22 10:53:13;;;;;;;5.53;5.10;;;9.20;1.00;;;;;;5417482;26;20409;-70
2024/04/22 10:55:39;;;;;;;5.97;5.47;;;9.10;1.00;;;;;;5417077;26;20449;-70
2024/04/22 10:58:04;;;;;;;4.87;4.47;;;9.10;1.00;;;;;;5417420;26;20733;-70
2024/04/22 11:00:31;;;;;;;5.60;5.20;;;9.30;1.00;;;;;;5386342;26;20288;-71
2024/04/22 11:02:58;;;;;;;5.33;4.23;;;9.40;1.00;;;;;;5385937;26;20266;-70
2024/04/22 11:05:24;;;;;;;6.50;5.90;;;9.90;1.00;;;;;;5416894;26;20456;-71
2024/04/22 11:07:50;;;;;;;5.40;4.90;;;9.60;1.00;;;;;;5385765;26;20884;-71
2024/04/22 11:10:16;;;;;;;4.87;4.57;;;9.80;1.00;;;;;;5386114;26;20574;-71
2024/04/22 11:12:42;;;;;;;5.40;5.00;;;9.90;1.00;;;;;;5417315;26;20219;-70
2024/04/22 11:15:08;;;;;;;6.27;5.67;;;10.50;1.00;;;;;;5385703;26;20498;-71
2024/04/22 11:17:33;;;;;;;6.00;5.60;;;10.30;1.00;;;;;;5417064;26;20235;-71
2024/04/22 11:20:10;;;;;;;5.83;5.43;;;10.00;1.00;;;;;;5417495;26;20228;-71
2024/04/22 11:22:36;;;;;;;5.90;5.47;;;10.30;1.00;;;;;;5417300;26;20219;-71
2024/04/22 11:25:06;;;;;;;6.30;5.90;;;10.20;1.00;;;;;;5416859;26;20453;-71
2024/04/22 11:27:32;;;;;;;6.07;5.67;;;10.40;1.00;;;;;;5417535;26;21056;-71
2024/04/22 11:29:57;;;;;;;5.27;4.93;;;10.10;1.00;;;;;;5385767;26;20465;-71
2024/04/22 11:32:28;;;;;;;5.67;5.27;;;10.40;1.00;;;;;;5417578;26;20449;-71
2024/04/22 11:34:54;;;;;;;5.07;4.67;;;10.00;1.00;;;;;;5385701;26;20687;-71
2024/04/22 11:37:19;;;;;;;5.53;5.13;;;9.60;1.00;;;;;;5417894;26;20581;-71
2024/04/22 11:39:50;;;;;;;5.10;4.70;;;9.60;1.00;;;;;;5417662;26;20223;-71
2024/04/22 11:42:16;;;;;;;6.20;5.73;;;9.70;1.00;;;;;;5420650;26;20223;-71
2024/04/22 11:44:42;;;;;;;5.97;5.57;;;10.10;1.00;;;;;;5422874;26;21039;-71
2024/04/22 11:47:07;;;;;;;5.70;5.20;;;10.30;1.00;;;;;;5393310;26;20476;-72
2024/04/22 11:49:33;;;;;;;5.53;5.23;;;10.40;1.00;;;;;;5424045;26;20273;-71
2024/04/22 11:51:59;;;;;;;5.93;5.47;;;10.10;1.00;;;;;;5423173;26;20266;-71
2024/04/22 11:54:24;;;;;;;5.47;5.07;;;9.90;1.00;;;;;;5419209;26;20278;-71
2024/04/22 11:56:50;;;;;;;5.90;5.40;;;9.90;1.00;;;;;;5418782;26;20286;-71
2024/04/22 11:59:15;;;;;;;5.67;5.17;;;10.00;1.00;;;;;;5421315;26;20250;-70
2024/04/22 12:01:41;;;;;;;5.80;5.33;;;10.00;1.00;;;;;;5420265;26;20746;-70
2024/04/22 12:04:06;;;;;;;6.57;5.97;;;9.80;1.00;;;;;;5417610;26;20270;-70
2024/04/22 12:06:32;;;;;;;6.07;5.67;;;9.80;1.00;;;;;;5417414;26;20621;-70
2024/04/22 12:08:58;;;;;;;5.80;5.40;;;10.20;1.00;;;;;;5417376;26;20227;-71
2024/04/22 12:11:23;;;;;;;5.53;5.23;;;10.60;1.00;;;;;;5417152;26;20219;-71
2024/04/22 12:13:49;;;;;;;6.90;6.50;;;10.90;1.00;;;;;;5385714;26;20235;-71
2024/04/22 12:16:15;;;;;;;5.47;5.17;;;11.00;1.00;;;;;;5384823;26;20525;-71
2024/04/22 12:18:40;;;;;;;6.97;6.47;;;11.00;1.00;;;;;;5385293;26;20313;-71
2024/04/22 12:21:07;;;;;;;6.23;5.83;;;11.20;1.00;;;;;;5416438;26;20296;-71
2024/04/22 12:23:33;;;;;;;5.93;5.63;;;11.30;1.00;;;;;;5416869;26;20711;-71
2024/04/22 12:25:59;;;;;;;6.90;6.50;;;11.40;1.00;;;;;;5415829;26;20576;-71
2024/04/22 12:28:24;;;;;;;6.77;6.37;;;11.20;1.00;;;;;;5416080;26;20821;-72
2024/04/22 12:30:51;;;;;;;6.83;6.40;;;10.70;1.00;;;;;;5416641;26;20224;-71
2024/04/22 12:33:17;;;;;;;6.90;6.50;;;10.80;1.00;;;;;;5384928;26;20227;-70
2024/04/22 12:35:43;;;;;;;7.10;6.60;;;10.40;1.00;;;;;;5415558;26;20449;-70
2024/04/22 12:38:09;;;;;;;6.23;5.93;;;10.30;1.00;;;;;;5416256;26;21043;-70
2024/04/22 12:40:35;;;;;;;6.10;5.73;;;10.70;1.00;;;;;;5416042;26;20270;-70
2024/04/22 12:43:01;;;;;;;7.00;6.60;;;11.00;1.00;;;;;;5416019;26;20227;-71
2024/04/22 12:45:27;;;;;;;7.13;6.63;;;10.70;1.00;;;;;;5415376;26;20505;-71
2024/04/22 12:50:45;;;;;;;6.30;5.80;;;10.60;1.00;;;;;;5416444;26;20509;-71
2024/04/22 12:53:19;;;;;;;6.73;6.30;;;10.50;1.00;;;;;;5414660;26;20509;-71
2024/04/22 12:55:45;;;;;;;7.00;6.50;;;10.40;1.00;;;;;;5384398;26;20460;-71
2024/04/22 12:58:12;;;;;;;5.83;5.53;;;10.20;1.00;;;;;;5416025;26;20501;-72
2024/04/22 13:00:38;;;;;;;5.97;5.37;;;10.30;1.00;;;;;;5415793;26;20761;-71
2024/04/22 13:03:04;;;;;;;5.80;5.50;;;10.00;1.00;;;;;;5384342;26;20528;-70